sensor_id;sensor_type;location;lat;lon;timestamp;pressure;altitude;pressure_sealevel;temperature;humidity
11017;BME280;54687;50.800;6.772;2023-04-20T00:00:20;60996.50;;;-144.06;41.45
11017;BME280;54687;50.800;6.772;2023-04-20T00:02:46;61004.88;;;-144.06;41.81
11017;BME280;54687;50.800;6.772;2023-04-20T00:05:13;61021.63;;;-144.06;41.88
11017;BME280;54687;50.800;6.772;2023-04-20T00:07:41;61019.53;;;-144.06;41.86
11017;BME280;54687;50.800;6.772;2023-04-20T00:10:08;61025.84;;;-144.06;41.84
11017;BME280;54687;50.800;6.772;2023-04-20T00:12:35;61027.94;;;-144.06;41.75
11017;BME280;54687;50.800;6.772;2023-04-20T00:15:02;61004.88;;;-144.06;41.51
11017;BME280;54687;50.800;6.772;2023-04-20T00:17:28;61030.03;;;-144.06;41.58
11017;BME280;54687;50.800;6.772;2023-04-20T00:19:55;61004.88;;;-144.06;41.67
11017;BME280;54687;50.800;6.772;2023-04-20T00:22:22;61048.88;;;-144.06;41.67
11017;BME280;54687;50.800;6.772;2023-04-20T00:24:50;61042.59;;;-144.06;41.65
11017;BME280;54687;50.800;6.772;2023-04-20T00:27:17;61034.22;;;-144.06;41.66
11017;BME280;54687;50.800;6.772;2023-04-20T00:29:43;61017.44;;;-144.06;41.75
11017;BME280;54687;50.800;6.772;2023-04-20T00:32:10;61036.31;;;-144.06;41.89
11017;BME280;54687;50.800;6.772;2023-04-20T00:34:37;61034.22;;;-144.06;42.01
11017;BME280;54687;50.800;6.772;2023-04-20T00:37:03;61025.84;;;-144.06;42.38
11017;BME280;54687;50.800;6.772;2023-04-20T00:39:30;60979.72;;;-144.06;42.45
11017;BME280;54687;50.800;6.772;2023-04-20T00:42:04;61015.34;;;-144.06;42.54
11017;BME280;54687;50.800;6.772;2023-04-20T00:44:31;61006.97;;;-144.06;42.68
11017;BME280;54687;50.800;6.772;2023-04-20T00:46:57;61023.75;;;-144.06;42.46
11017;BME280;54687;50.800;6.772;2023-04-20T00:49:25;61021.63;;;-144.06;42.28
11017;BME280;54687;50.800;6.772;2023-04-20T00:51:54;61015.34;;;-144.06;41.99
11017;BME280;54687;50.800;6.772;2023-04-20T00:54:21;61021.63;;;-144.06;42.30
11017;BME280;54687;50.800;6.772;2023-04-20T00:56:48;61030.03;;;-144.06;42.22
11017;BME280;54687;50.800;6.772;2023-04-20T00:59:17;61025.84;;;-144.06;42.51
11017;BME280;54687;50.800;6.772;2023-04-20T01:01:43;61000.69;;;-144.06;42.50
11017;BME280;54687;50.800;6.772;2023-04-20T01:04:10;61017.44;;;-144.06;42.41
11017;BME280;54687;50.800;6.772;2023-04-20T01:06:37;61036.31;;;-144.06;42.48
11017;BME280;54687;50.800;6.772;2023-04-20T01:09:03;61013.25;;;-144.06;42.49
11017;BME280;54687;50.800;6.772;2023-04-20T01:11:30;61053.09;;;-144.06;42.48
11017;BME280;54687;50.800;6.772;2023-04-20T01:13:57;60977.63;;;-144.06;42.26
11017;BME280;54687;50.800;6.772;2023-04-20T01:16:25;61015.34;;;-144.06;42.20
11017;BME280;54687;50.800;6.772;2023-04-20T01:18:52;60996.50;;;-144.06;42.06
11017;BME280;54687;50.800;6.772;2023-04-20T01:21:19;60983.91;;;-144.06;41.98
11017;BME280;54687;50.800;6.772;2023-04-20T01:23:48;61006.97;;;-144.06;42.12
11017;BME280;54687;50.800;6.772;2023-04-20T01:26:17;61013.25;;;-144.06;42.00
11017;BME280;54687;50.800;6.772;2023-04-20T01:28:45;61017.44;;;-144.06;41.87
11017;BME280;54687;50.800;6.772;2023-04-20T01:31:12;60992.28;;;-144.06;41.94
11017;BME280;54687;50.800;6.772;2023-04-20T01:33:39;60967.13;;;-144.06;42.16
11017;BME280;54687;50.800;6.772;2023-04-20T01:36:06;61009.06;;;-144.06;42.42
11017;BME280;54687;50.800;6.772;2023-04-20T01:38:33;61025.84;;;-144.06;42.58
11017;BME280;54687;50.800;6.772;2023-04-20T01:41:02;61025.84;;;-144.06;42.84
11017;BME280;54687;50.800;6.772;2023-04-20T01:43:29;60996.50;;;-144.06;42.87
11017;BME280;54687;50.800;6.772;2023-04-20T01:45:56;61017.44;;;-144.06;42.75
11017;BME280;54687;50.800;6.772;2023-04-20T01:48:23;61021.63;;;-144.06;42.90
11017;BME280;54687;50.800;6.772;2023-04-20T01:50:50;61017.44;;;-144.06;42.78
11017;BME280;54687;50.800;6.772;2023-04-20T01:53:17;60996.50;;;-144.06;42.65
11017;BME280;54687;50.800;6.772;2023-04-20T01:55:43;61013.25;;;-144.06;42.75
11017;BME280;54687;50.800;6.772;2023-04-20T01:58:11;61013.25;;;-144.06;42.40
11017;BME280;54687;50.800;6.772;2023-04-20T02:00:38;61051.00;;;-144.06;42.33
11017;BME280;54687;50.800;6.772;2023-04-20T02:03:05;60988.09;;;-144.06;42.14
11017;BME280;54687;50.800;6.772;2023-04-20T02:05:31;61076.13;;;-144.06;41.96
11017;BME280;54687;50.800;6.772;2023-04-20T02:07:58;61021.63;;;-144.06;41.79
11017;BME280;54687;50.800;6.772;2023-04-20T02:10:24;60994.38;;;-144.06;41.84
11017;BME280;54687;50.800;6.772;2023-04-20T02:12:51;61002.78;;;-144.06;41.87
11017;BME280;54687;50.800;6.772;2023-04-20T02:15:19;61013.25;;;-144.06;41.52
11017;BME280;54687;50.800;6.772;2023-04-20T02:17:45;60983.91;;;-144.06;41.48
11017;BME280;54687;50.800;6.772;2023-04-20T02:20:16;61038.41;;;-144.06;41.69
11017;BME280;54687;50.800;6.772;2023-04-20T02:22:43;61004.88;;;-144.06;41.77
11017;BME280;54687;50.800;6.772;2023-04-20T02:25:10;61019.53;;;-144.06;41.69
11017;BME280;54687;50.800;6.772;2023-04-20T02:27:36;61004.88;;;-144.06;41.48
11017;BME280;54687;50.800;6.772;2023-04-20T02:30:04;61009.06;;;-144.06;41.60
11017;BME280;54687;50.800;6.772;2023-04-20T02:32:34;61032.13;;;-144.06;41.70
11017;BME280;54687;50.800;6.772;2023-04-20T02:35:00;60988.09;;;-144.06;41.72
11017;BME280;54687;50.800;6.772;2023-04-20T02:37:28;60988.09;;;-144.06;41.49
11017;BME280;54687;50.800;6.772;2023-04-20T02:39:55;61023.75;;;-144.06;41.66
11017;BME280;54687;50.800;6.772;2023-04-20T02:42:21;60996.50;;;-144.06;41.75
11017;BME280;54687;50.800;6.772;2023-04-20T02:44:48;60946.19;;;-144.06;41.89
11017;BME280;54687;50.800;6.772;2023-04-20T02:47:17;60975.53;;;-144.06;41.87
11017;BME280;54687;50.800;6.772;2023-04-20T02:49:44;60975.53;;;-144.06;42.10
11017;BME280;54687;50.800;6.772;2023-04-20T02:52:11;60996.50;;;-144.06;42.00
11017;BME280;54687;50.800;6.772;2023-04-20T02:54:38;61009.06;;;-144.06;42.09
11017;BME280;54687;50.800;6.772;2023-04-20T02:57:04;61006.97;;;-144.06;42.43
11017;BME280;54687;50.800;6.772;2023-04-20T02:59:31;60992.28;;;-144.06;42.45
11017;BME280;54687;50.800;6.772;2023-04-20T03:01:58;61011.16;;;-144.06;42.56
11017;BME280;54687;50.800;6.772;2023-04-20T03:04:24;61004.88;;;-144.06;42.63
11017;BME280;54687;50.800;6.772;2023-04-20T03:06:53;60962.94;;;-144.06;43.00
11017;BME280;54687;50.800;6.772;2023-04-20T03:09:20;61025.84;;;-144.06;43.31
11017;BME280;54687;50.800;6.772;2023-04-20T03:11:46;61011.16;;;-144.06;43.61
11017;BME280;54687;50.800;6.772;2023-04-20T03:14:13;61032.13;;;-144.06;43.75
11017;BME280;54687;50.800;6.772;2023-04-20T03:16:39;61055.19;;;-144.06;43.97
11017;BME280;54687;50.800;6.772;2023-04-20T03:19:06;60996.50;;;-144.06;44.03
11017;BME280;54687;50.800;6.772;2023-04-20T03:21:34;60952.47;;;-144.06;44.05
11017;BME280;54687;50.800;6.772;2023-04-20T03:24:03;60998.59;;;-144.06;43.87
11017;BME280;54687;50.800;6.772;2023-04-20T03:26:30;61004.88;;;-144.06;43.87
11017;BME280;54687;50.800;6.772;2023-04-20T03:28:57;61015.34;;;-144.06;43.67
11017;BME280;54687;50.800;6.772;2023-04-20T03:31:23;61004.88;;;-144.06;43.84
11017;BME280;54687;50.800;6.772;2023-04-20T03:33:50;60996.50;;;-144.06;43.71
11017;BME280;54687;50.800;6.772;2023-04-20T03:36:17;61030.03;;;-144.06;43.39
11017;BME280;54687;50.800;6.772;2023-04-20T03:38:43;60988.09;;;-144.06;42.96
11017;BME280;54687;50.800;6.772;2023-04-20T03:41:11;61009.06;;;-144.06;43.01
11017;BME280;54687;50.800;6.772;2023-04-20T03:43:37;60965.03;;;-144.06;42.68
11017;BME280;54687;50.800;6.772;2023-04-20T03:46:05;61015.34;;;-144.06;42.77
11017;BME280;54687;50.800;6.772;2023-04-20T03:48:32;61019.53;;;-144.06;44.29
11017;BME280;54687;50.800;6.772;2023-04-20T03:50:59;61000.69;;;-144.06;43.88
11017;BME280;54687;50.800;6.772;2023-04-20T03:53:25;61009.06;;;-144.06;44.42
11017;BME280;54687;50.800;6.772;2023-04-20T03:55:53;60988.09;;;-144.06;43.42
11017;BME280;54687;50.800;6.772;2023-04-20T03:58:21;61004.88;;;-144.06;43.53
11017;BME280;54687;50.800;6.772;2023-04-20T04:00:48;60992.28;;;-144.06;42.87
11017;BME280;54687;50.800;6.772;2023-04-20T04:03:14;61038.41;;;-144.06;43.31
11017;BME280;54687;50.800;6.772;2023-04-20T04:05:41;61059.38;;;-144.06;43.40
11017;BME280;54687;50.800;6.772;2023-04-20T04:08:07;61006.97;;;-144.06;43.24
11017;BME280;54687;50.800;6.772;2023-04-20T04:10:34;61030.03;;;-144.06;43.19
11017;BME280;54687;50.800;6.772;2023-04-20T04:13:00;61004.88;;;-144.06;43.16
11017;BME280;54687;50.800;6.772;2023-04-20T04:15:28;61046.78;;;-144.06;43.08
11017;BME280;54687;50.800;6.772;2023-04-20T04:17:55;60996.50;;;-144.06;43.14
11017;BME280;54687;50.800;6.772;2023-04-20T04:20:22;60996.50;;;-144.06;43.07
11017;BME280;54687;50.800;6.772;2023-04-20T04:22:48;61021.63;;;-144.06;43.41
11017;BME280;54687;50.800;6.772;2023-04-20T04:25:16;61025.84;;;-144.06;43.37
11017;BME280;54687;50.800;6.772;2023-04-20T04:27:43;60996.50;;;-144.06;43.24
11017;BME280;54687;50.800;6.772;2023-04-20T04:30:13;61044.69;;;-144.06;42.73
11017;BME280;54687;50.800;6.772;2023-04-20T04:32:41;60992.28;;;-144.06;42.53
11017;BME280;54687;50.800;6.772;2023-04-20T04:35:09;61015.34;;;-144.06;42.35
11017;BME280;54687;50.800;6.772;2023-04-20T04:37:35;61048.88;;;-144.06;41.72
11017;BME280;54687;50.800;6.772;2023-04-20T04:40:03;60998.59;;;-144.06;41.70
11017;BME280;54687;50.800;6.772;2023-04-20T04:42:32;61013.25;;;-144.06;41.45
11017;BME280;54687;50.800;6.772;2023-04-20T04:44:59;61009.06;;;-144.06;41.50
11017;BME280;54687;50.800;6.772;2023-04-20T04:47:26;61030.03;;;-144.06;41.46
11017;BME280;54687;50.800;6.772;2023-04-20T04:49:56;61013.25;;;-144.06;41.34
11017;BME280;54687;50.800;6.772;2023-04-20T04:52:25;61051.00;;;-144.06;41.70
11017;BME280;54687;50.800;6.772;2023-04-20T04:54:52;61042.59;;;-144.06;41.70
11017;BME280;54687;50.800;6.772;2023-04-20T04:57:19;61006.97;;;-144.06;41.94
11017;BME280;54687;50.800;6.772;2023-04-20T04:59:46;61021.63;;;-144.06;42.35
11017;BME280;54687;50.800;6.772;2023-04-20T05:02:12;60979.72;;;-144.06;42.25
11017;BME280;54687;50.800;6.772;2023-04-20T05:04:39;60983.91;;;-144.06;43.31
11017;BME280;54687;50.800;6.772;2023-04-20T05:07:07;60994.38;;;-144.06;43.64
11017;BME280;54687;50.800;6.772;2023-04-20T05:09:35;60983.91;;;-144.06;44.13
11017;BME280;54687;50.800;6.772;2023-04-20T05:12:01;61034.22;;;-144.06;44.98
11017;BME280;54687;50.800;6.772;2023-04-20T05:14:29;61006.97;;;-144.06;44.46
11017;BME280;54687;50.800;6.772;2023-04-20T05:16:55;61013.25;;;-144.06;44.77
11017;BME280;54687;50.800;6.772;2023-04-20T05:19:22;61004.88;;;-144.06;45.38
11017;BME280;54687;50.800;6.772;2023-04-20T05:21:48;61009.06;;;-144.06;44.76
11017;BME280;54687;50.800;6.772;2023-04-20T05:24:16;61013.25;;;-144.06;45.18
11017;BME280;54687;50.800;6.772;2023-04-20T05:26:43;60992.28;;;-144.06;45.54
11017;BME280;54687;50.800;6.772;2023-04-20T05:29:10;61009.06;;;-144.06;46.33
11017;BME280;54687;50.800;6.772;2023-04-20T05:31:36;61021.63;;;-144.06;46.99
11017;BME280;54687;50.800;6.772;2023-04-20T05:34:03;60988.09;;;-144.06;47.20
11017;BME280;54687;50.800;6.772;2023-04-20T05:36:30;61042.59;;;-144.06;47.73
11017;BME280;54687;50.800;6.772;2023-04-20T05:38:58;60996.50;;;-144.06;48.34
11017;BME280;54687;50.800;6.772;2023-04-20T05:41:25;61038.41;;;-144.06;49.10
11017;BME280;54687;50.800;6.772;2023-04-20T05:43:52;61009.06;;;-144.06;49.54
11017;BME280;54687;50.800;6.772;2023-04-20T05:46:19;60981.81;;;-144.06;49.25
11017;BME280;54687;50.800;6.772;2023-04-20T05:48:45;61019.53;;;-144.06;49.94
11017;BME280;54687;50.800;6.772;2023-04-20T05:51:13;60996.50;;;-144.06;50.82
11017;BME280;54687;50.800;6.772;2023-04-20T05:53:40;60981.81;;;-144.06;50.97
11017;BME280;54687;50.800;6.772;2023-04-20T05:56:06;61074.03;;;-144.06;51.77
11017;BME280;54687;50.800;6.772;2023-04-20T05:58:35;61030.03;;;-144.06;51.86
11017;BME280;54687;50.800;6.772;2023-04-20T06:01:02;60979.72;;;-144.06;51.39
11017;BME280;54687;50.800;6.772;2023-04-20T06:03:29;61017.44;;;-144.06;51.36
11017;BME280;54687;50.800;6.772;2023-04-20T06:05:56;61051.00;;;-144.06;51.43
11017;BME280;54687;50.800;6.772;2023-04-20T06:08:22;61027.94;;;-144.06;51.27
11017;BME280;54687;50.800;6.772;2023-04-20T06:10:52;61034.22;;;-144.06;51.37
11017;BME280;54687;50.800;6.772;2023-04-20T06:13:19;61034.22;;;-144.06;51.52
11017;BME280;54687;50.800;6.772;2023-04-20T06:15:47;60996.50;;;-144.06;52.12
11017;BME280;54687;50.800;6.772;2023-04-20T06:18:14;61004.88;;;-144.06;52.32
11017;BME280;54687;50.800;6.772;2023-04-20T06:20:42;60992.28;;;-144.06;51.77
11017;BME280;54687;50.800;6.772;2023-04-20T06:23:08;61021.63;;;-144.06;52.08
11017;BME280;54687;50.800;6.772;2023-04-20T06:25:36;60996.50;;;-144.06;52.26
11017;BME280;54687;50.800;6.772;2023-04-20T06:28:03;61004.88;;;-144.06;52.05
11017;BME280;54687;50.800;6.772;2023-04-20T06:30:30;60986.00;;;-144.06;51.73
11017;BME280;54687;50.800;6.772;2023-04-20T06:32:59;60988.09;;;-144.06;51.75
11017;BME280;54687;50.800;6.772;2023-04-20T06:35:26;61034.22;;;-144.06;52.10
11017;BME280;54687;50.800;6.772;2023-04-20T06:37:53;61057.28;;;-144.06;52.08
11017;BME280;54687;50.800;6.772;2023-04-20T06:40:21;61038.41;;;-144.06;51.62
11017;BME280;54687;50.800;6.772;2023-04-20T06:42:48;60992.28;;;-144.06;52.25
11017;BME280;54687;50.800;6.772;2023-04-20T06:45:14;61053.09;;;-144.06;51.75
11017;BME280;54687;50.800;6.772;2023-04-20T06:47:42;60996.50;;;-144.06;51.92
11017;BME280;54687;50.800;6.772;2023-04-20T06:50:10;61021.63;;;-144.06;52.06
11017;BME280;54687;50.800;6.772;2023-04-20T06:52:38;61034.22;;;-144.06;52.74
11017;BME280;54687;50.800;6.772;2023-04-20T06:55:05;60975.53;;;-144.06;53.16
11017;BME280;54687;50.800;6.772;2023-04-20T06:57:32;60998.59;;;-144.06;53.49
11017;BME280;54687;50.800;6.772;2023-04-20T06:59:59;61030.03;;;-144.06;52.78
11017;BME280;54687;50.800;6.772;2023-04-20T07:02:26;61059.38;;;-144.06;53.96
11017;BME280;54687;50.800;6.772;2023-04-20T07:04:59;60996.50;;;-144.06;54.05
11017;BME280;54687;50.800;6.772;2023-04-20T07:07:28;61059.38;;;-144.06;54.54
11017;BME280;54687;50.800;6.772;2023-04-20T07:09:54;61048.88;;;-144.06;55.17
11017;BME280;54687;50.800;6.772;2023-04-20T07:12:21;61021.63;;;-144.06;55.03
11017;BME280;54687;50.800;6.772;2023-04-20T07:14:47;61030.03;;;-144.06;56.12
11017;BME280;54687;50.800;6.772;2023-04-20T07:17:14;61027.94;;;-144.06;56.87
11017;BME280;54687;50.800;6.772;2023-04-20T07:19:41;61030.03;;;-144.06;56.98
11017;BME280;54687;50.800;6.772;2023-04-20T07:22:07;61021.63;;;-144.06;57.03
11017;BME280;54687;50.800;6.772;2023-04-20T07:24:35;60996.50;;;-144.06;57.36
11017;BME280;54687;50.800;6.772;2023-04-20T07:27:02;61048.88;;;-144.06;58.15
11017;BME280;54687;50.800;6.772;2023-04-20T07:29:29;61030.03;;;-144.06;58.06
11017;BME280;54687;50.800;6.772;2023-04-20T07:31:56;61063.56;;;-144.06;58.44
11017;BME280;54687;50.800;6.772;2023-04-20T07:34:23;61009.06;;;-144.06;58.20
11017;BME280;54687;50.800;6.772;2023-04-20T07:36:49;61000.69;;;-144.06;59.57
11017;BME280;54687;50.800;6.772;2023-04-20T07:39:16;61063.56;;;-144.06;59.19
11017;BME280;54687;50.800;6.772;2023-04-20T07:41:44;61023.75;;;-144.06;58.77
11017;BME280;54687;50.800;6.772;2023-04-20T07:44:12;61004.88;;;-144.06;57.46
11017;BME280;54687;50.800;6.772;2023-04-20T07:46:38;61004.88;;;-144.06;56.83
11017;BME280;54687;50.800;6.772;2023-04-20T07:49:06;61046.78;;;-144.06;57.15
11017;BME280;54687;50.800;6.772;2023-04-20T07:51:33;61011.16;;;-144.06;57.49
11017;BME280;54687;50.800;6.772;2023-04-20T07:54:00;61063.56;;;-144.06;57.62
11017;BME280;54687;50.800;6.772;2023-04-20T07:56:27;60996.50;;;-144.06;57.21
11017;BME280;54687;50.800;6.772;2023-04-20T07:58:55;61009.06;;;-144.06;56.97
11017;BME280;54687;50.800;6.772;2023-04-20T08:01:22;61055.19;;;-144.06;56.62
11017;BME280;54687;50.800;6.772;2023-04-20T08:03:49;61013.25;;;-144.06;57.27
11017;BME280;54687;50.800;6.772;2023-04-20T08:06:16;61009.06;;;-144.06;57.25
11017;BME280;54687;50.800;6.772;2023-04-20T08:08:43;61021.63;;;-144.06;57.40
11017;BME280;54687;50.800;6.772;2023-04-20T08:11:09;61030.03;;;-144.06;57.17
11017;BME280;54687;50.800;6.772;2023-04-20T08:13:37;61034.22;;;-144.06;57.04
11017;BME280;54687;50.800;6.772;2023-04-20T08:16:05;61063.56;;;-144.06;56.85
11017;BME280;54687;50.800;6.772;2023-04-20T08:18:32;61009.06;;;-144.06;56.80
11017;BME280;54687;50.800;6.772;2023-04-20T08:20:58;61013.25;;;-144.06;56.53
11017;BME280;54687;50.800;6.772;2023-04-20T08:23:25;61023.75;;;-144.06;56.14
11017;BME280;54687;50.800;6.772;2023-04-20T08:25:53;61030.03;;;-144.06;56.85
11017;BME280;54687;50.800;6.772;2023-04-20T08:28:20;61051.00;;;-144.06;57.36
11017;BME280;54687;50.800;6.772;2023-04-20T08:30:47;60994.38;;;-144.06;57.81
11017;BME280;54687;50.800;6.772;2023-04-20T08:33:15;61004.88;;;-144.06;59.64
11017;BME280;54687;50.800;6.772;2023-04-20T08:35:43;61017.44;;;-144.06;59.36
11017;BME280;54687;50.800;6.772;2023-04-20T08:38:09;61034.22;;;-144.06;58.79
11017;BME280;54687;50.800;6.772;2023-04-20T08:40:36;61000.69;;;-144.06;60.97
11017;BME280;54687;50.800;6.772;2023-04-20T08:43:03;61030.03;;;-144.06;60.29
11017;BME280;54687;50.800;6.772;2023-04-20T08:45:30;61067.75;;;-144.06;60.89
11017;BME280;54687;50.800;6.772;2023-04-20T08:47:57;60996.50;;;-144.06;61.21
11017;BME280;54687;50.800;6.772;2023-04-20T08:50:25;61034.22;;;-144.06;62.67
11017;BME280;54687;50.800;6.772;2023-04-20T08:52:52;61013.25;;;-144.06;63.02
11017;BME280;54687;50.800;6.772;2023-04-20T08:55:19;61042.59;;;-144.06;60.84
11017;BME280;54687;50.800;6.772;2023-04-20T08:57:46;61013.25;;;-144.06;61.78
11017;BME280;54687;50.800;6.772;2023-04-20T09:00:14;61025.84;;;-144.06;61.01
11017;BME280;54687;50.800;6.772;2023-04-20T09:02:48;61044.69;;;-144.06;61.06
11017;BME280;54687;50.800;6.772;2023-04-20T09:05:23;61034.22;;;-144.06;60.26
11017;BME280;54687;50.800;6.772;2023-04-20T09:07:53;61017.44;;;-144.06;59.24
11017;BME280;54687;50.800;6.772;2023-04-20T09:10:21;61011.16;;;-144.06;59.19
11017;BME280;54687;50.800;6.772;2023-04-20T09:12:49;61030.03;;;-144.06;58.81
11017;BME280;54687;50.800;6.772;2023-04-20T09:15:24;60992.28;;;-144.06;58.59
11017;BME280;54687;50.800;6.772;2023-04-20T09:17:50;61034.22;;;-144.06;59.86
11017;BME280;54687;50.800;6.772;2023-04-20T09:20:26;61046.78;;;-144.06;61.36
11017;BME280;54687;50.800;6.772;2023-04-20T09:22:55;61059.38;;;-144.06;62.10
11017;BME280;54687;50.800;6.772;2023-04-20T09:25:23;60996.50;;;-144.06;61.33
11017;BME280;54687;50.800;6.772;2023-04-20T09:27:54;61030.03;;;-144.06;60.21
11017;BME280;54687;50.800;6.772;2023-04-20T09:30:22;61017.44;;;-144.06;60.68
11017;BME280;54687;50.800;6.772;2023-04-20T09:33:00;61021.63;;;-144.06;59.62
11017;BME280;54687;50.800;6.772;2023-04-20T09:35:26;61038.41;;;-144.06;59.23
11017;BME280;54687;50.800;6.772;2023-04-20T09:37:55;61006.97;;;-144.06;58.70
11017;BME280;54687;50.800;6.772;2023-04-20T09:40:23;61017.44;;;-144.06;56.85
11017;BME280;54687;50.800;6.772;2023-04-20T09:42:50;61017.44;;;-144.06;56.48
11017;BME280;54687;50.800;6.772;2023-04-20T09:45:19;61055.19;;;-144.06;56.41
11017;BME280;54687;50.800;6.772;2023-04-20T09:47:46;61051.00;;;-144.06;55.63
11017;BME280;54687;50.800;6.772;2023-04-20T09:50:15;61046.78;;;-144.06;56.26
11017;BME280;54687;50.800;6.772;2023-04-20T09:52:42;60967.13;;;-144.06;57.09
11017;BME280;54687;50.800;6.772;2023-04-20T09:55:10;61004.88;;;-144.06;55.72
11017;BME280;54687;50.800;6.772;2023-04-20T09:57:38;61009.06;;;-144.06;54.24
11017;BME280;54687;50.800;6.772;2023-04-20T10:00:07;61017.44;;;-144.06;52.93
11017;BME280;54687;50.800;6.772;2023-04-20T10:02:35;61004.88;;;-144.06;51.53
11017;BME280;54687;50.800;6.772;2023-04-20T10:05:02;60979.72;;;-144.06;50.62
11017;BME280;54687;50.800;6.772;2023-04-20T10:07:30;60941.97;;;-144.06;49.62
11017;BME280;54687;50.800;6.772;2023-04-20T10:10:08;60962.94;;;-144.06;48.50
11017;BME280;54687;50.800;6.772;2023-04-20T10:12:48;60983.91;;;-144.06;47.97
11017;BME280;54687;50.800;6.772;2023-04-20T10:15:15;60960.84;;;-144.06;46.80
11017;BME280;54687;50.800;6.772;2023-04-20T10:17:42;60971.34;;;-144.06;46.08
11017;BME280;54687;50.800;6.772;2023-04-20T10:20:19;60967.13;;;-144.06;47.73
11017;BME280;54687;50.800;6.772;2023-04-20T10:22:46;61013.25;;;-144.06;47.53
11017;BME280;54687;50.800;6.772;2023-04-20T10:25:14;60988.09;;;-144.06;48.51
11017;BME280;54687;50.800;6.772;2023-04-20T10:27:53;60971.34;;;-144.06;48.44
11017;BME280;54687;50.800;6.772;2023-04-20T10:30:21;60975.53;;;-144.06;48.86
11017;BME280;54687;50.800;6.772;2023-04-20T10:32:49;60931.50;;;-144.06;47.23
11017;BME280;54687;50.800;6.772;2023-04-20T10:35:15;60944.09;;;-144.06;47.26
11017;BME280;54687;50.800;6.772;2023-04-20T10:37:49;60941.97;;;-144.06;45.52
11017;BME280;54687;50.800;6.772;2023-04-20T10:40:16;60962.94;;;-144.06;45.87
11017;BME280;54687;50.800;6.772;2023-04-20T10:42:53;60994.38;;;-144.06;46.16
11017;BME280;54687;50.800;6.772;2023-04-20T10:45:19;60986.00;;;-144.06;46.45
11017;BME280;54687;50.800;6.772;2023-04-20T10:47:46;60958.75;;;-144.06;46.69
11017;BME280;54687;50.800;6.772;2023-04-20T10:50:14;60952.47;;;-144.06;47.29
11017;BME280;54687;50.800;6.772;2023-04-20T10:52:42;60941.97;;;-144.06;47.61
11017;BME280;54687;50.800;6.772;2023-04-20T10:55:18;60933.59;;;-144.06;47.53
11017;BME280;54687;50.800;6.772;2023-04-20T10:57:45;60929.41;;;-144.06;46.18
11017;BME280;54687;50.800;6.772;2023-04-20T11:00:17;60981.81;;;-144.06;46.68
11017;BME280;54687;50.800;6.772;2023-04-20T11:02:46;60935.69;;;-144.06;46.64
11017;BME280;54687;50.800;6.772;2023-04-20T11:05:14;60958.75;;;-144.06;46.60
11017;BME280;54687;50.800;6.772;2023-04-20T11:07:46;60954.56;;;-144.06;45.79
11017;BME280;54687;50.800;6.772;2023-04-20T11:10:13;60960.84;;;-144.06;45.65
11017;BME280;54687;50.800;6.772;2023-04-20T11:12:40;60988.09;;;-144.06;45.28
11017;BME280;54687;50.800;6.772;2023-04-20T11:15:08;60962.94;;;-144.06;45.95
11017;BME280;54687;50.800;6.772;2023-04-20T11:17:37;60990.19;;;-144.06;46.04
11017;BME280;54687;50.800;6.772;2023-04-20T11:20:06;61017.44;;;-144.06;46.52
11017;BME280;54687;50.800;6.772;2023-04-20T11:22:35;60937.78;;;-144.06;46.92
11017;BME280;54687;50.800;6.772;2023-04-20T11:25:03;60927.31;;;-144.06;45.40
11017;BME280;54687;50.800;6.772;2023-04-20T11:27:31;60950.38;;;-144.06;44.32
11017;BME280;54687;50.800;6.772;2023-04-20T11:29:58;60944.09;;;-144.06;44.29
11017;BME280;54687;50.800;6.772;2023-04-20T11:32:29;60971.34;;;-144.06;45.27
11017;BME280;54687;50.800;6.772;2023-04-20T11:35:01;60941.97;;;-144.06;44.96
11017;BME280;54687;50.800;6.772;2023-04-20T11:37:29;60950.38;;;-144.06;45.72
11017;BME280;54687;50.800;6.772;2023-04-20T11:40:00;60962.94;;;-144.06;45.13
11017;BME280;54687;50.800;6.772;2023-04-20T11:42:29;60960.84;;;-144.06;44.79
11017;BME280;54687;50.800;6.772;2023-04-20T11:44:56;60870.72;;;-144.06;44.66
11017;BME280;54687;50.800;6.772;2023-04-20T11:47:22;60944.09;;;-144.06;44.55
11017;BME280;54687;50.800;6.772;2023-04-20T11:49:49;60908.44;;;-144.06;43.27
11017;BME280;54687;50.800;6.772;2023-04-20T11:52:17;60965.03;;;-144.06;43.30
11017;BME280;54687;50.800;6.772;2023-04-20T11:54:44;60925.22;;;-144.06;42.48
11017;BME280;54687;50.800;6.772;2023-04-20T11:57:11;60925.22;;;-144.06;42.32
11017;BME280;54687;50.800;6.772;2023-04-20T11:59:37;60944.09;;;-144.06;42.85
11017;BME280;54687;50.800;6.772;2023-04-20T12:02:04;60950.38;;;-144.06;43.04
11017;BME280;54687;50.800;6.772;2023-04-20T12:04:33;60935.69;;;-144.06;42.15
11017;BME280;54687;50.800;6.772;2023-04-20T12:07:00;60921.03;;;-144.06;41.67
11017;BME280;54687;50.800;6.772;2023-04-20T12:09:29;60954.56;;;-144.06;41.74
11017;BME280;54687;50.800;6.772;2023-04-20T12:12:02;60887.47;;;-144.06;41.08
11017;BME280;54687;50.800;6.772;2023-04-20T12:14:28;60937.78;;;-144.06;41.89
11017;BME280;54687;50.800;6.772;2023-04-20T12:16:57;60931.50;;;-144.06;41.48
11017;BME280;54687;50.800;6.772;2023-04-20T12:19:26;60902.16;;;-144.06;40.73
11017;BME280;54687;50.800;6.772;2023-04-20T12:21:52;60893.78;;;-144.06;40.74
11017;BME280;54687;50.800;6.772;2023-04-20T12:24:19;60941.97;;;-144.06;40.91
11017;BME280;54687;50.800;6.772;2023-04-20T12:26:47;60933.59;;;-144.06;40.68
11017;BME280;54687;50.800;6.772;2023-04-20T12:29:14;60952.47;;;-144.06;41.55
11017;BME280;54687;50.800;6.772;2023-04-20T12:31:41;60866.53;;;-144.06;40.96
11017;BME280;54687;50.800;6.772;2023-04-20T12:34:07;60900.06;;;-144.06;40.70
11017;BME280;54687;50.800;6.772;2023-04-20T12:36:34;60904.25;;;-144.06;40.13
11017;BME280;54687;50.800;6.772;2023-04-20T12:39:01;60900.06;;;-144.06;39.44
11017;BME280;54687;50.800;6.772;2023-04-20T12:41:28;60891.69;;;-144.06;38.75